Aeroporto :







RITROVATECI SU...

 
LOGIN :

Iscrizione | Disclaimer

   EN    FR    IT 

 









Sommario :    VFR   VFR Marginale   IFR   IFR Intensivo   IFR Molto Intensivo
Visibilità : 
Base nubi : 
>= 8 km
>= 3000ft
5 / 8 km
1000 / 3000 ft
1500m / 5 km
500 / 1000 ft
800 / 1500m
200 / 500 ft
< 800m
< 200 ft
Simboli :   Temporali  Nebbia  Neve Forte  Precipitazioni Forti  Vento > 20 kt






- Altitudine del aeroporto : 534 ft
- Codice IATA : PQI


KPQI - Northern Maine Regional Arpt At Presque Isle

ULTIMO METAR :
  • 262256Z AUTO 26003KT 10SM BKN090 BKN110 29/15 A3004 RMK AO2 SLP193 T02940150

METARs OBSOLETI :
  • 262156Z AUTO 21007KT 10SM BKN085 BKN110 29/14 A3002 RMK AO2 SLP188 T02940144
  • 262056Z AUTO 26006KT 10SM FEW075 BKN110 30/14 A3003 RMK AO2 SLP189 T03000144 56007

TAF KPQI
Valido dal 27 a 00 ore il 28 a 00 ore UTC


262320Z 2700/2724 22005KT P6SM VCSH BKN080
FM270400 VRB03KT P6SM VCSH BKN060
FM270900 VRB02KT 5SM BR BKN025
FM271200 22005KT P6SM BKN050
FM272200 13005KT P6SM VCSH BKN060
FIR KZBW / America del Nord



MetMap, La meteo Aeronautica in un colpo d'occhio ! - Copyright ORBIFLY Dicembre 2007 - Disclaimer

ORBIFLY MET'MAP TEAM :

Programmazione e sviluppo : Alexandra Zaïnal
Concezione : Baudouin d'Aumeries
Aiuto per la programmazione : Marc-Olivier Méhu
Supporto tecnico e logistico : Manuel Goepfert
Aiuto per la traduzione : Arnaldo La Scala

Contatto : metmap@orbifly.com




FONTI E CREDITI :

   NOAA